KCIU/CIU METAR and TAF weather

Enter ICAO airport designator
Station Type Date Time Source
KCIU METAR 2018/04/26 14:56 UTC NOAA

KCIU 261456Z AUTO VRB06KT 10SM CLR 08/M03 A2986 RMK AO2 SLP143 T00781028 58011


Station Type Date Time Source
KCIU Decoded METAR 2018/04/26 14:56 UTC NOAA

Sault Ste Marie, Chippewa County International Airport, MI, United States (KCIU) 46-15N 084-28W
Apr 26, 2018 - 10:56 AM EDT / 2018.04.26 1456 UTC
Wind: Variable at 7 MPH (6 KT):0
Visibility: 10 mile(s):0
Sky conditions: clear
Temperature: 46.0 F (7.8 C)
Dew Point: 27.0 F (-2.8 C)
Relative Humidity: 47%
Pressure (altimeter): 29.86 in. Hg (1011 hPa)
Pressure tendency: 0.03 inches (1.1 hPa) lower than three hours ago
ob: KCIU 261456Z AUTO VRB06KT 10SM CLR 08/M03 A2986 RMK AO2 SLP143 T00781028 58011
cycle: 15

Station Type Date Time Source
KCIU TAF UTC NOAA

Error!


Example: see airport list